sensor_id;sensor_type;location;lat;lon;timestamp;temperature;humidity
2391;DHT22;22957;50.824;4.360;2023-02-01T00:02:00;9.80;99.90
2391;DHT22;22957;50.824;4.360;2023-02-01T00:04:26;9.40;99.90
2391;DHT22;22957;50.824;4.360;2023-02-01T00:06:52;9.60;99.90
2391;DHT22;22957;50.824;4.360;2023-02-01T00:09:18;9.60;99.90
2391;DHT22;22957;50.824;4.360;2023-02-01T00:11:45;9.90;99.90
2391;DHT22;22957;50.824;4.360;2023-02-01T00:14:11;10.00;99.90
2391;DHT22;22957;50.824;4.360;2023-02-01T00:16:37;10.00;99.90
2391;DHT22;22957;50.824;4.360;2023-02-01T00:19:10;10.30;99.90
2391;DHT22;22957;50.824;4.360;2023-02-01T00:21:36;9.80;99.90
2391;DHT22;22957;50.824;4.360;2023-02-01T00:24:02;9.70;99.90
2391;DHT22;22957;50.824;4.360;2023-02-01T00:26:35;9.80;99.90
2391;DHT22;22957;50.824;4.360;2023-02-01T00:29:04;9.70;99.90
2391;DHT22;22957;50.824;4.360;2023-02-01T00:31:30;9.80;99.90
2391;DHT22;22957;50.824;4.360;2023-02-01T00:33:56;9.70;99.90
2391;DHT22;22957;50.824;4.360;2023-02-01T00:36:22;10.00;99.90
2391;DHT22;22957;50.824;4.360;2023-02-01T00:38:48;10.10;99.90
2391;DHT22;22957;50.824;4.360;2023-02-01T00:41:16;10.50;99.90
2391;DHT22;22957;50.824;4.360;2023-02-01T00:43:44;10.00;99.90
2391;DHT22;22957;50.824;4.360;2023-02-01T00:46:11;10.00;99.90
2391;DHT22;22957;50.824;4.360;2023-02-01T00:48:37;10.20;99.90
2391;DHT22;22957;50.824;4.360;2023-02-01T00:51:05;9.60;99.90
2391;DHT22;22957;50.824;4.360;2023-02-01T00:53:32;9.80;99.90
2391;DHT22;22957;50.824;4.360;2023-02-01T00:55:57;9.20;99.90
2391;DHT22;22957;50.824;4.360;2023-02-01T00:58:24;9.80;99.90
2391;DHT22;22957;50.824;4.360;2023-02-01T01:03:26;9.70;99.90
2391;DHT22;22957;50.824;4.360;2023-02-01T01:05:58;9.80;99.90
2391;DHT22;22957;50.824;4.360;2023-02-01T01:08:23;9.70;99.90
2391;DHT22;22957;50.824;4.360;2023-02-01T01:10:49;9.80;99.90
2391;DHT22;22957;50.824;4.360;2023-02-01T01:13:15;10.00;99.90
2391;DHT22;22957;50.824;4.360;2023-02-01T01:15:41;9.30;99.90
2391;DHT22;22957;50.824;4.360;2023-02-01T01:18:07;9.80;99.90
2391;DHT22;22957;50.824;4.360;2023-02-01T01:20:38;9.90;99.90
2391;DHT22;22957;50.824;4.360;2023-02-01T01:23:04;10.00;99.90
2391;DHT22;22957;50.824;4.360;2023-02-01T01:25:30;9.90;99.90
2391;DHT22;22957;50.824;4.360;2023-02-01T01:27:56;10.20;99.90
2391;DHT22;22957;50.824;4.360;2023-02-01T01:30:22;10.10;99.90
2391;DHT22;22957;50.824;4.360;2023-02-01T01:32:48;9.80;99.90
2391;DHT22;22957;50.824;4.360;2023-02-01T01:35:14;9.90;99.90
2391;DHT22;22957;50.824;4.360;2023-02-01T01:37:39;10.10;99.90
2391;DHT22;22957;50.824;4.360;2023-02-01T01:40:06;10.30;99.90
2391;DHT22;22957;50.824;4.360;2023-02-01T01:42:40;10.30;99.90
2391;DHT22;22957;50.824;4.360;2023-02-01T01:45:20;10.10;99.90
2391;DHT22;22957;50.824;4.360;2023-02-01T01:47:50;9.90;99.90
2391;DHT22;22957;50.824;4.360;2023-02-01T01:50:21;9.90;99.90
2391;DHT22;22957;50.824;4.360;2023-02-01T01:52:49;10.10;99.90
2391;DHT22;22957;50.824;4.360;2023-02-01T01:55:17;10.30;99.90
2391;DHT22;22957;50.824;4.360;2023-02-01T01:57:47;10.30;99.90
2391;DHT22;22957;50.824;4.360;2023-02-01T02:00:17;10.30;99.90
2391;DHT22;22957;50.824;4.360;2023-02-01T02:02:46;10.20;99.90
2391;DHT22;22957;50.824;4.360;2023-02-01T02:05:13;10.20;99.90
2391;DHT22;22957;50.824;4.360;2023-02-01T02:07:43;9.80;99.90
2391;DHT22;22957;50.824;4.360;2023-02-01T02:10:15;9.70;99.90
2391;DHT22;22957;50.824;4.360;2023-02-01T02:12:42;10.20;99.90
2391;DHT22;22957;50.824;4.360;2023-02-01T02:15:11;10.20;99.90
2391;DHT22;22957;50.824;4.360;2023-02-01T02:23:31;10.50;99.90
2391;DHT22;22957;50.824;4.360;2023-02-01T02:45:50;9.80;99.90
2391;DHT22;22957;50.824;4.360;2023-02-01T02:48:46;9.80;99.90
2391;DHT22;22957;50.824;4.360;2023-02-01T02:51:36;10.40;99.90
2391;DHT22;22957;50.824;4.360;2023-02-01T02:54:25;10.30;99.90
2391;DHT22;22957;50.824;4.360;2023-02-01T02:57:19;10.00;99.90
2391;DHT22;22957;50.824;4.360;2023-02-01T03:00:08;9.80;99.90
2391;DHT22;22957;50.824;4.360;2023-02-01T03:02:53;9.90;99.90
2391;DHT22;22957;50.824;4.360;2023-02-01T03:05:42;9.50;99.90
2391;DHT22;22957;50.824;4.360;2023-02-01T03:08:34;9.80;99.90
2391;DHT22;22957;50.824;4.360;2023-02-01T03:11:08;9.60;99.90
2391;DHT22;22957;50.824;4.360;2023-02-01T03:21:57;9.50;99.90
2391;DHT22;22957;50.824;4.360;2023-02-01T03:24:39;9.10;99.90
2391;DHT22;22957;50.824;4.360;2023-02-01T03:27:13;9.20;99.90
2391;DHT22;22957;50.824;4.360;2023-02-01T03:29:51;9.40;99.90
2391;DHT22;22957;50.824;4.360;2023-02-01T03:32:20;9.50;99.90
2391;DHT22;22957;50.824;4.360;2023-02-01T03:34:46;9.80;99.90
2391;DHT22;22957;50.824;4.360;2023-02-01T03:37:19;9.70;99.90
2391;DHT22;22957;50.824;4.360;2023-02-01T03:40:07;9.00;99.90
2391;DHT22;22957;50.824;4.360;2023-02-01T03:42:44;9.30;99.90
2391;DHT22;22957;50.824;4.360;2023-02-01T03:45:20;9.10;99.90
2391;DHT22;22957;50.824;4.360;2023-02-01T03:47:50;8.90;99.90
2391;DHT22;22957;50.824;4.360;2023-02-01T03:50:23;8.80;99.90
2391;DHT22;22957;50.824;4.360;2023-02-01T03:53:17;8.20;99.90
2391;DHT22;22957;50.824;4.360;2023-02-01T03:55:45;8.80;99.90
2391;DHT22;22957;50.824;4.360;2023-02-01T03:58:16;8.40;99.90
2391;DHT22;22957;50.824;4.360;2023-02-01T04:00:57;8.70;99.90
2391;DHT22;22957;50.824;4.360;2023-02-01T04:03:25;8.60;99.90
2391;DHT22;22957;50.824;4.360;2023-02-01T04:05:51;8.70;99.90
2391;DHT22;22957;50.824;4.360;2023-02-01T04:08:21;8.70;99.90
2391;DHT22;22957;50.824;4.360;2023-02-01T04:10:47;8.40;99.90
2391;DHT22;22957;50.824;4.360;2023-02-01T04:13:13;8.90;99.90
2391;DHT22;22957;50.824;4.360;2023-02-01T04:15:39;8.40;99.90
2391;DHT22;22957;50.824;4.360;2023-02-01T04:18:04;8.70;99.90
2391;DHT22;22957;50.824;4.360;2023-02-01T04:20:30;8.40;99.90
2391;DHT22;22957;50.824;4.360;2023-02-01T04:22:56;8.10;99.90
2391;DHT22;22957;50.824;4.360;2023-02-01T04:25:22;8.30;99.90
2391;DHT22;22957;50.824;4.360;2023-02-01T04:27:48;8.30;99.90
2391;DHT22;22957;50.824;4.360;2023-02-01T04:30:14;8.40;99.90
2391;DHT22;22957;50.824;4.360;2023-02-01T04:32:40;8.10;99.90
2391;DHT22;22957;50.824;4.360;2023-02-01T04:35:06;8.10;99.90
2391;DHT22;22957;50.824;4.360;2023-02-01T04:37:32;8.20;99.90
2391;DHT22;22957;50.824;4.360;2023-02-01T04:39:58;8.60;99.90
2391;DHT22;22957;50.824;4.360;2023-02-01T04:42:24;8.30;99.90
2391;DHT22;22957;50.824;4.360;2023-02-01T04:44:50;8.00;99.90
2391;DHT22;22957;50.824;4.360;2023-02-01T04:47:16;7.90;99.90
2391;DHT22;22957;50.824;4.360;2023-02-01T04:49:41;8.10;99.90
2391;DHT22;22957;50.824;4.360;2023-02-01T04:52:07;7.70;99.90
2391;DHT22;22957;50.824;4.360;2023-02-01T04:54:33;7.90;99.90
2391;DHT22;22957;50.824;4.360;2023-02-01T04:56:59;7.70;99.90
2391;DHT22;22957;50.824;4.360;2023-02-01T04:59:25;8.10;99.90
2391;DHT22;22957;50.824;4.360;2023-02-01T05:01:51;8.10;99.90
2391;DHT22;22957;50.824;4.360;2023-02-01T05:04:17;7.90;99.90
2391;DHT22;22957;50.824;4.360;2023-02-01T05:06:46;7.90;99.90
2391;DHT22;22957;50.824;4.360;2023-02-01T05:09:12;8.30;99.90
2391;DHT22;22957;50.824;4.360;2023-02-01T05:11:38;8.10;99.90
2391;DHT22;22957;50.824;4.360;2023-02-01T05:14:22;8.10;99.90
2391;DHT22;22957;50.824;4.360;2023-02-01T05:16:48;7.90;99.90
2391;DHT22;22957;50.824;4.360;2023-02-01T05:19:14;8.00;99.90
2391;DHT22;22957;50.824;4.360;2023-02-01T05:21:39;7.70;99.90
2391;DHT22;22957;50.824;4.360;2023-02-01T05:24:08;8.30;99.90
2391;DHT22;22957;50.824;4.360;2023-02-01T05:26:45;7.90;99.90
2391;DHT22;22957;50.824;4.360;2023-02-01T05:29:13;7.20;99.90
2391;DHT22;22957;50.824;4.360;2023-02-01T05:31:39;7.40;99.90
2391;DHT22;22957;50.824;4.360;2023-02-01T05:34:05;7.70;99.90
2391;DHT22;22957;50.824;4.360;2023-02-01T05:36:31;7.60;99.90
2391;DHT22;22957;50.824;4.360;2023-02-01T05:38:57;8.10;99.90
2391;DHT22;22957;50.824;4.360;2023-02-01T05:41:23;7.90;99.90
2391;DHT22;22957;50.824;4.360;2023-02-01T05:43:49;7.70;99.90
2391;DHT22;22957;50.824;4.360;2023-02-01T05:46:14;7.40;99.90
2391;DHT22;22957;50.824;4.360;2023-02-01T05:48:40;7.30;99.90
2391;DHT22;22957;50.824;4.360;2023-02-01T05:51:07;7.10;99.90
2391;DHT22;22957;50.824;4.360;2023-02-01T05:53:32;7.00;99.90
2391;DHT22;22957;50.824;4.360;2023-02-01T05:55:58;7.30;99.90
2391;DHT22;22957;50.824;4.360;2023-02-01T05:58:24;7.10;99.90
2391;DHT22;22957;50.824;4.360;2023-02-01T06:00:49;7.10;99.90
2391;DHT22;22957;50.824;4.360;2023-02-01T06:03:17;7.10;99.90
2391;DHT22;22957;50.824;4.360;2023-02-01T06:05:47;6.90;99.90
2391;DHT22;22957;50.824;4.360;2023-02-01T06:08:13;7.00;99.90
2391;DHT22;22957;50.824;4.360;2023-02-01T06:10:39;7.10;99.90
2391;DHT22;22957;50.824;4.360;2023-02-01T06:13:08;7.30;99.90
2391;DHT22;22957;50.824;4.360;2023-02-01T06:15:34;7.00;99.90
2391;DHT22;22957;50.824;4.360;2023-02-01T06:18:00;7.20;99.90
2391;DHT22;22957;50.824;4.360;2023-02-01T06:20:26;6.80;99.90
2391;DHT22;22957;50.824;4.360;2023-02-01T06:22:52;7.30;99.90
2391;DHT22;22957;50.824;4.360;2023-02-01T06:25:18;7.50;99.90
2391;DHT22;22957;50.824;4.360;2023-02-01T06:27:44;7.60;99.90
2391;DHT22;22957;50.824;4.360;2023-02-01T06:30:11;7.20;99.90
2391;DHT22;22957;50.824;4.360;2023-02-01T06:32:40;7.20;99.90
2391;DHT22;22957;50.824;4.360;2023-02-01T06:35:09;7.30;99.90
2391;DHT22;22957;50.824;4.360;2023-02-01T06:37:41;7.70;99.90
2391;DHT22;22957;50.824;4.360;2023-02-01T06:40:08;7.50;99.90
2391;DHT22;22957;50.824;4.360;2023-02-01T06:42:34;7.30;99.90
2391;DHT22;22957;50.824;4.360;2023-02-01T06:44:59;7.20;99.90
2391;DHT22;22957;50.824;4.360;2023-02-01T06:47:25;7.50;99.90
2391;DHT22;22957;50.824;4.360;2023-02-01T06:49:51;7.20;99.90
2391;DHT22;22957;50.824;4.360;2023-02-01T06:52:17;6.90;99.90
2391;DHT22;22957;50.824;4.360;2023-02-01T06:54:42;7.40;99.90
2391;DHT22;22957;50.824;4.360;2023-02-01T06:57:08;7.00;99.90
2391;DHT22;22957;50.824;4.360;2023-02-01T06:59:34;7.00;99.90
2391;DHT22;22957;50.824;4.360;2023-02-01T07:01:59;7.20;99.90
2391;DHT22;22957;50.824;4.360;2023-02-01T07:04:25;7.30;99.90
2391;DHT22;22957;50.824;4.360;2023-02-01T07:06:51;7.30;99.90
2391;DHT22;22957;50.824;4.360;2023-02-01T07:09:16;7.20;99.90
2391;DHT22;22957;50.824;4.360;2023-02-01T07:11:42;7.30;99.90
2391;DHT22;22957;50.824;4.360;2023-02-01T07:14:12;7.30;99.90
2391;DHT22;22957;50.824;4.360;2023-02-01T07:16:38;7.50;99.90
2391;DHT22;22957;50.824;4.360;2023-02-01T07:19:04;7.20;99.90
2391;DHT22;22957;50.824;4.360;2023-02-01T07:21:30;7.50;99.90
2391;DHT22;22957;50.824;4.360;2023-02-01T07:23:55;7.40;99.90
2391;DHT22;22957;50.824;4.360;2023-02-01T07:26:21;7.50;99.90
2391;DHT22;22957;50.824;4.360;2023-02-01T07:28:47;7.80;99.90
2391;DHT22;22957;50.824;4.360;2023-02-01T07:31:18;7.40;99.90
2391;DHT22;22957;50.824;4.360;2023-02-01T07:33:46;7.40;99.90
2391;DHT22;22957;50.824;4.360;2023-02-01T07:36:15;7.70;99.90
2391;DHT22;22957;50.824;4.360;2023-02-01T07:38:41;7.20;99.90
2391;DHT22;22957;50.824;4.360;2023-02-01T07:41:07;6.90;99.90
2391;DHT22;22957;50.824;4.360;2023-02-01T07:43:33;7.30;99.90
2391;DHT22;22957;50.824;4.360;2023-02-01T07:46:00;7.20;99.90
2391;DHT22;22957;50.824;4.360;2023-02-01T07:48:27;7.40;99.90
2391;DHT22;22957;50.824;4.360;2023-02-01T07:51:01;7.60;99.90
2391;DHT22;22957;50.824;4.360;2023-02-01T07:53:26;7.50;99.90
2391;DHT22;22957;50.824;4.360;2023-02-01T07:55:53;7.30;99.90
2391;DHT22;22957;50.824;4.360;2023-02-01T07:58:21;7.50;99.90
2391;DHT22;22957;50.824;4.360;2023-02-01T08:00:47;7.60;99.90
2391;DHT22;22957;50.824;4.360;2023-02-01T08:03:31;8.00;99.90
2391;DHT22;22957;50.824;4.360;2023-02-01T08:05:57;7.80;99.90
2391;DHT22;22957;50.824;4.360;2023-02-01T08:08:23;8.10;99.90
2391;DHT22;22957;50.824;4.360;2023-02-01T08:10:49;7.70;99.90
2391;DHT22;22957;50.824;4.360;2023-02-01T08:13:15;8.20;99.90
2391;DHT22;22957;50.824;4.360;2023-02-01T08:15:41;7.90;99.90
2391;DHT22;22957;50.824;4.360;2023-02-01T08:18:06;7.90;99.90
2391;DHT22;22957;50.824;4.360;2023-02-01T08:20:33;7.90;99.90
2391;DHT22;22957;50.824;4.360;2023-02-01T08:23:00;8.40;99.90
2391;DHT22;22957;50.824;4.360;2023-02-01T08:25:26;7.80;99.90
2391;DHT22;22957;50.824;4.360;2023-02-01T08:27:53;8.00;99.90
2391;DHT22;22957;50.824;4.360;2023-02-01T08:30:20;8.30;99.90
2391;DHT22;22957;50.824;4.360;2023-02-01T08:32:46;7.80;99.90
2391;DHT22;22957;50.824;4.360;2023-02-01T08:35:11;8.00;99.90
2391;DHT22;22957;50.824;4.360;2023-02-01T08:37:37;8.00;99.90
2391;DHT22;22957;50.824;4.360;2023-02-01T08:40:04;7.80;99.90
2391;DHT22;22957;50.824;4.360;2023-02-01T08:42:30;8.20;99.90
2391;DHT22;22957;50.824;4.360;2023-02-01T08:45:15;8.40;99.90
2391;DHT22;22957;50.824;4.360;2023-02-01T08:47:40;8.20;99.90
2391;DHT22;22957;50.824;4.360;2023-02-01T08:50:06;8.10;99.90
2391;DHT22;22957;50.824;4.360;2023-02-01T08:52:32;8.40;99.90
2391;DHT22;22957;50.824;4.360;2023-02-01T08:54:58;8.50;99.90
2391;DHT22;22957;50.824;4.360;2023-02-01T08:57:23;8.10;99.90
2391;DHT22;22957;50.824;4.360;2023-02-01T08:59:49;8.70;99.90
2391;DHT22;22957;50.824;4.360;2023-02-01T09:02:16;8.60;99.90
2391;DHT22;22957;50.824;4.360;2023-02-01T09:04:42;8.50;99.90
2391;DHT22;22957;50.824;4.360;2023-02-01T09:07:09;9.00;99.90
2391;DHT22;22957;50.824;4.360;2023-02-01T09:09:35;9.00;99.90
2391;DHT22;22957;50.824;4.360;2023-02-01T09:12:01;9.50;99.90
2391;DHT22;22957;50.824;4.360;2023-02-01T09:14:28;9.70;99.90
2391;DHT22;22957;50.824;4.360;2023-02-01T09:16:53;9.60;99.90
2391;DHT22;22957;50.824;4.360;2023-02-01T09:19:19;10.00;99.90
2391;DHT22;22957;50.824;4.360;2023-02-01T09:21:45;9.60;99.90
2391;DHT22;22957;50.824;4.360;2023-02-01T09:24:11;10.00;99.90
2391;DHT22;22957;50.824;4.360;2023-02-01T09:26:37;10.10;99.90
2391;DHT22;22957;50.824;4.360;2023-02-01T09:29:03;10.60;99.90
2391;DHT22;22957;50.824;4.360;2023-02-01T09:31:31;10.70;99.90
2391;DHT22;22957;50.824;4.360;2023-02-01T09:33:57;11.00;99.90
2391;DHT22;22957;50.824;4.360;2023-02-01T09:36:23;11.00;99.90
2391;DHT22;22957;50.824;4.360;2023-02-01T09:38:49;11.00;99.90
2391;DHT22;22957;50.824;4.360;2023-02-01T09:41:32;11.40;99.90
2391;DHT22;22957;50.824;4.360;2023-02-01T09:46:34;12.50;99.90
2391;DHT22;22957;50.824;4.360;2023-02-01T09:49:22;12.30;99.90
2391;DHT22;22957;50.824;4.360;2023-02-01T09:51:51;12.10;99.90
2391;DHT22;22957;50.824;4.360;2023-02-01T09:54:35;12.20;99.90
2391;DHT22;22957;50.824;4.360;2023-02-01T09:57:24;11.60;99.90
2391;DHT22;22957;50.824;4.360;2023-02-01T10:00:04;12.20;99.90
2391;DHT22;22957;50.824;4.360;2023-02-01T10:02:39;12.30;99.90
2391;DHT22;22957;50.824;4.360;2023-02-01T10:05:10;12.50;99.90
2391;DHT22;22957;50.824;4.360;2023-02-01T10:10:43;12.40;99.90
2391;DHT22;22957;50.824;4.360;2023-02-01T10:16:30;12.50;99.90
2391;DHT22;22957;50.824;4.360;2023-02-01T10:22:02;12.90;99.90
2391;DHT22;22957;50.824;4.360;2023-02-01T10:29:37;13.50;99.90
2391;DHT22;22957;50.824;4.360;2023-02-01T10:32:14;14.00;99.90
2391;DHT22;22957;50.824;4.360;2023-02-01T10:34:41;13.00;99.90
2391;DHT22;22957;50.824;4.360;2023-02-01T10:39:49;13.90;99.90
2391;DHT22;22957;50.824;4.360;2023-02-01T10:42:18;13.30;99.90
2391;DHT22;22957;50.824;4.360;2023-02-01T10:44:45;13.30;99.90
2391;DHT22;22957;50.824;4.360;2023-02-01T10:47:13;13.20;99.90
2391;DHT22;22957;50.824;4.360;2023-02-01T10:49:55;13.10;99.90
2391;DHT22;22957;50.824;4.360;2023-02-01T10:52:57;13.90;99.90
2391;DHT22;22957;50.824;4.360;2023-02-01T10:57:59;14.60;99.90
2391;DHT22;22957;50.824;4.360;2023-02-01T11:00:26;15.20;99.90
2391;DHT22;22957;50.824;4.360;2023-02-01T11:02:53;14.80;99.90
2391;DHT22;22957;50.824;4.360;2023-02-01T11:05:19;15.30;99.90
2391;DHT22;22957;50.824;4.360;2023-02-01T11:07:53;14.70;99.90
2391;DHT22;22957;50.824;4.360;2023-02-01T11:10:40;14.40;99.90
2391;DHT22;22957;50.824;4.360;2023-02-01T11:13:14;14.80;99.90
2391;DHT22;22957;50.824;4.360;2023-02-01T11:15:45;14.00;99.90
2391;DHT22;22957;50.824;4.360;2023-02-01T11:18:17;14.40;99.90
2391;DHT22;22957;50.824;4.360;2023-02-01T11:20:44;14.40;99.90
2391;DHT22;22957;50.824;4.360;2023-02-01T11:23:24;14.10;99.90
2391;DHT22;22957;50.824;4.360;2023-02-01T11:28:25;14.00;99.90
2391;DHT22;22957;50.824;4.360;2023-02-01T11:30:55;13.90;99.90
2391;DHT22;22957;50.824;4.360;2023-02-01T11:33:27;14.10;99.90
2391;DHT22;22957;50.824;4.360;2023-02-01T11:35:57;13.60;99.90
2391;DHT22;22957;50.824;4.360;2023-02-01T11:38:30;13.70;99.90
2391;DHT22;22957;50.824;4.360;2023-02-01T11:41:17;13.60;99.90
2391;DHT22;22957;50.824;4.360;2023-02-01T11:44:00;13.50;99.90
2391;DHT22;22957;50.824;4.360;2023-02-01T11:46:31;13.20;99.90
2391;DHT22;22957;50.824;4.360;2023-02-01T11:49:19;13.40;99.90
2391;DHT22;22957;50.824;4.360;2023-02-01T11:54:56;13.20;99.90
2391;DHT22;22957;50.824;4.360;2023-02-01T12:08:15;13.90;99.90
2391;DHT22;22957;50.824;4.360;2023-02-01T12:10:50;13.90;99.90
2391;DHT22;22957;50.824;4.360;2023-02-01T12:26:39;14.00;99.90
2391;DHT22;22957;50.824;4.360;2023-02-01T12:29:17;14.20;99.90
2391;DHT22;22957;50.824;4.360;2023-02-01T12:42:24;14.50;99.90
2391;DHT22;22957;50.824;4.360;2023-02-01T12:45:14;14.30;99.90
2391;DHT22;22957;50.824;4.360;2023-02-01T12:47:57;14.00;99.90
2391;DHT22;22957;50.824;4.360;2023-02-01T12:50:42;13.70;99.90
2391;DHT22;22957;50.824;4.360;2023-02-01T12:53:15;13.50;99.90
2391;DHT22;22957;50.824;4.360;2023-02-01T12:55:55;14.50;99.90
2391;DHT22;22957;50.824;4.360;2023-02-01T12:58:38;14.00;99.90
2391;DHT22;22957;50.824;4.360;2023-02-01T13:01:28;14.40;99.90
2391;DHT22;22957;50.824;4.360;2023-02-01T13:04:26;14.50;99.90
2391;DHT22;22957;50.824;4.360;2023-02-01T13:09:44;14.60;99.90
2391;DHT22;22957;50.824;4.360;2023-02-01T13:12:34;15.10;99.90
2391;DHT22;22957;50.824;4.360;2023-02-01T13:15:10;14.50;99.90
2391;DHT22;22957;50.824;4.360;2023-02-01T13:17:39;15.00;99.90
2391;DHT22;22957;50.824;4.360;2023-02-01T13:22:58;15.20;99.90
2391;DHT22;22957;50.824;4.360;2023-02-01T13:25:35;15.20;99.90
2391;DHT22;22957;50.824;4.360;2023-02-01T13:28:11;15.50;99.90
2391;DHT22;22957;50.824;4.360;2023-02-01T13:30:54;15.30;99.90
2391;DHT22;22957;50.824;4.360;2023-02-01T13:36:20;15.80;99.90
2391;DHT22;22957;50.824;4.360;2023-02-01T13:41:57;15.20;99.90
2391;DHT22;22957;50.824;4.360;2023-02-01T13:46:56;15.60;99.90
2391;DHT22;22957;50.824;4.360;2023-02-01T13:49:26;15.50;99.90
2391;DHT22;22957;50.824;4.360;2023-02-01T13:51:56;15.30;99.90
2391;DHT22;22957;50.824;4.360;2023-02-01T13:54:30;14.90;99.90
2391;DHT22;22957;50.824;4.360;2023-02-01T13:57:01;15.10;99.90
2391;DHT22;22957;50.824;4.360;2023-02-01T14:05:58;14.80;99.90
2391;DHT22;22957;50.824;4.360;2023-02-01T14:10:52;14.90;99.90
2391;DHT22;22957;50.824;4.360;2023-02-01T14:13:31;15.10;99.90
2391;DHT22;22957;50.824;4.360;2023-02-01T14:23:43;14.90;99.90
2391;DHT22;22957;50.824;4.360;2023-02-01T14:37:03;14.10;99.90
2391;DHT22;22957;50.824;4.360;2023-02-01T14:50:31;14.30;99.90
2391;DHT22;22957;50.824;4.360;2023-02-01T14:55:44;13.90;99.90
2391;DHT22;22957;50.824;4.360;2023-02-01T15:00:55;13.60;99.90
2391;DHT22;22957;50.824;4.360;2023-02-01T15:09:33;13.90;99.90
2391;DHT22;22957;50.824;4.360;2023-02-01T15:14:35;13.80;99.90
2391;DHT22;22957;50.824;4.360;2023-02-01T15:17:02;13.40;99.90
2391;DHT22;22957;50.824;4.360;2023-02-01T15:19:29;13.80;99.90
2391;DHT22;22957;50.824;4.360;2023-02-01T15:21:59;13.50;99.90
2391;DHT22;22957;50.824;4.360;2023-02-01T15:24:30;13.60;99.90
2391;DHT22;22957;50.824;4.360;2023-02-01T15:27:02;13.00;99.90
2391;DHT22;22957;50.824;4.360;2023-02-01T15:29:29;13.30;99.90
2391;DHT22;22957;50.824;4.360;2023-02-01T15:31:58;13.40;99.90
2391;DHT22;22957;50.824;4.360;2023-02-01T15:34:47;13.50;99.90
2391;DHT22;22957;50.824;4.360;2023-02-01T15:37:14;13.60;99.90
2391;DHT22;22957;50.824;4.360;2023-02-01T15:42:36;13.40;99.90
2391;DHT22;22957;50.824;4.360;2023-02-01T15:45:04;13.30;99.90
2391;DHT22;22957;50.824;4.360;2023-02-01T15:47:31;13.00;99.90
2391;DHT22;22957;50.824;4.360;2023-02-01T15:49:59;12.80;99.90
2391;DHT22;22957;50.824;4.360;2023-02-01T15:55:01;12.90;99.90
2391;DHT22;22957;50.824;4.360;2023-02-01T15:57:36;13.00;99.90
2391;DHT22;22957;50.824;4.360;2023-02-01T16:00:07;12.80;99.90
2391;DHT22;22957;50.824;4.360;2023-02-01T16:02:40;12.50;99.90
2391;DHT22;22957;50.824;4.360;2023-02-01T16:05:33;12.90;99.90
2391;DHT22;22957;50.824;4.360;2023-02-01T16:08:13;12.70;99.90
2391;DHT22;22957;50.824;4.360;2023-02-01T16:10:45;12.60;99.90
2391;DHT22;22957;50.824;4.360;2023-02-01T16:13:12;12.90;99.90
2391;DHT22;22957;50.824;4.360;2023-02-01T16:15:39;12.80;99.90
2391;DHT22;22957;50.824;4.360;2023-02-01T16:18:05;13.00;99.90
2391;DHT22;22957;50.824;4.360;2023-02-01T16:20:34;12.40;99.90
2391;DHT22;22957;50.824;4.360;2023-02-01T16:23:04;12.80;99.90
2391;DHT22;22957;50.824;4.360;2023-02-01T16:25:30;12.50;99.90
2391;DHT22;22957;50.824;4.360;2023-02-01T16:27:56;12.70;99.90
2391;DHT22;22957;50.824;4.360;2023-02-01T16:30:22;12.70;99.90
2391;DHT22;22957;50.824;4.360;2023-02-01T16:32:55;12.20;99.90
2391;DHT22;22957;50.824;4.360;2023-02-01T16:35:37;12.50;99.90
2391;DHT22;22957;50.824;4.360;2023-02-01T16:38:13;12.40;99.90
2391;DHT22;22957;50.824;4.360;2023-02-01T16:40:42;12.70;99.90
2391;DHT22;22957;50.824;4.360;2023-02-01T16:43:22;12.50;99.90
2391;DHT22;22957;50.824;4.360;2023-02-01T16:45:50;12.00;99.90
2391;DHT22;22957;50.824;4.360;2023-02-01T16:48:27;12.00;99.90
2391;DHT22;22957;50.824;4.360;2023-02-01T16:50:59;12.10;99.90
2391;DHT22;22957;50.824;4.360;2023-02-01T16:53:27;11.80;99.90
2391;DHT22;22957;50.824;4.360;2023-02-01T16:55:53;12.00;99.90
2391;DHT22;22957;50.824;4.360;2023-02-01T16:58:20;12.30;99.90
2391;DHT22;22957;50.824;4.360;2023-02-01T17:00:47;11.90;99.90
2391;DHT22;22957;50.824;4.360;2023-02-01T17:03:13;11.90;99.90
2391;DHT22;22957;50.824;4.360;2023-02-01T17:05:43;12.30;99.90
2391;DHT22;22957;50.824;4.360;2023-02-01T17:08:15;12.10;99.90
2391;DHT22;22957;50.824;4.360;2023-02-01T17:10:41;11.90;99.90
2391;DHT22;22957;50.824;4.360;2023-02-01T17:13:12;11.80;99.90
2391;DHT22;22957;50.824;4.360;2023-02-01T17:15:38;12.00;99.90
2391;DHT22;22957;50.824;4.360;2023-02-01T17:18:05;11.90;99.90
2391;DHT22;22957;50.824;4.360;2023-02-01T17:20:32;11.80;99.90
2391;DHT22;22957;50.824;4.360;2023-02-01T17:22:58;11.90;99.90
2391;DHT22;22957;50.824;4.360;2023-02-01T17:25:23;12.10;99.90
2391;DHT22;22957;50.824;4.360;2023-02-01T17:27:51;11.70;99.90
2391;DHT22;22957;50.824;4.360;2023-02-01T17:30:17;11.80;99.90
2391;DHT22;22957;50.824;4.360;2023-02-01T17:32:43;11.30;99.90
2391;DHT22;22957;50.824;4.360;2023-02-01T17:35:19;11.60;99.90
2391;DHT22;22957;50.824;4.360;2023-02-01T17:37:46;11.60;99.90
2391;DHT22;22957;50.824;4.360;2023-02-01T17:40:12;11.10;99.90
2391;DHT22;22957;50.824;4.360;2023-02-01T17:42:40;11.40;99.90
2391;DHT22;22957;50.824;4.360;2023-02-01T17:47:56;11.10;99.90
2391;DHT22;22957;50.824;4.360;2023-02-01T17:50:25;11.10;99.90
2391;DHT22;22957;50.824;4.360;2023-02-01T17:52:51;11.30;99.90
2391;DHT22;22957;50.824;4.360;2023-02-01T17:55:23;11.30;99.90
2391;DHT22;22957;50.824;4.360;2023-02-01T17:57:49;10.80;99.90
2391;DHT22;22957;50.824;4.360;2023-02-01T18:00:17;11.10;99.90
2391;DHT22;22957;50.824;4.360;2023-02-01T18:02:43;11.30;99.90
2391;DHT22;22957;50.824;4.360;2023-02-01T18:05:40;11.40;99.90
2391;DHT22;22957;50.824;4.360;2023-02-01T18:08:08;10.90;99.90
2391;DHT22;22957;50.824;4.360;2023-02-01T18:10:34;11.10;99.90
2391;DHT22;22957;50.824;4.360;2023-02-01T18:13:02;11.00;99.90
2391;DHT22;22957;50.824;4.360;2023-02-01T18:15:29;11.00;99.90
2391;DHT22;22957;50.824;4.360;2023-02-01T18:17:56;11.10;99.90
2391;DHT22;22957;50.824;4.360;2023-02-01T18:20:23;11.10;99.90
2391;DHT22;22957;50.824;4.360;2023-02-01T18:22:50;10.70;99.90
2391;DHT22;22957;50.824;4.360;2023-02-01T18:25:24;11.30;99.90
2391;DHT22;22957;50.824;4.360;2023-02-01T18:27:52;11.30;99.90
2391;DHT22;22957;50.824;4.360;2023-02-01T18:30:20;11.60;99.90
2391;DHT22;22957;50.824;4.360;2023-02-01T18:32:47;11.50;99.90
2391;DHT22;22957;50.824;4.360;2023-02-01T18:35:24;11.60;99.90
2391;DHT22;22957;50.824;4.360;2023-02-01T18:37:50;11.50;99.90
2391;DHT22;22957;50.824;4.360;2023-02-01T18:40:26;11.70;99.90
2391;DHT22;22957;50.824;4.360;2023-02-01T18:42:52;11.80;99.90
2391;DHT22;22957;50.824;4.360;2023-02-01T18:45:39;12.10;99.90
2391;DHT22;22957;50.824;4.360;2023-02-01T18:48:06;12.10;99.90
2391;DHT22;22957;50.824;4.360;2023-02-01T18:50:35;12.30;99.90
2391;DHT22;22957;50.824;4.360;2023-02-01T18:53:04;12.10;99.90
2391;DHT22;22957;50.824;4.360;2023-02-01T18:55:30;12.10;99.90
2391;DHT22;22957;50.824;4.360;2023-02-01T18:57:58;11.90;99.90
2391;DHT22;22957;50.824;4.360;2023-02-01T19:00:25;11.50;99.90
2391;DHT22;22957;50.824;4.360;2023-02-01T19:02:51;11.60;99.90
2391;DHT22;22957;50.824;4.360;2023-02-01T19:05:17;11.00;99.90